Time;durP1;ratioP1;P1;durP2;ratioP2;P2;SDS_P1;SDS_P2;PMS_P1;PMS_P2;Temp;Humidity;BMP_temperature;BMP_pressure;BME280_temperature;BME280_humidity;BME280_pressure;Samples;Min_cycle;Max_cycle;Signal;HPM_P1;HPM_P2
2021/06/23 00:02:01;;;;;;;7.40;2.30;;;18.40;99.90;;;;;;3536156;40;20062;-86
2021/06/23 00:04:29;;;;;;;7.20;2.33;;;18.40;99.90;;;;;;3539140;40;20426;-84
2021/06/23 00:06:57;;;;;;;7.55;2.28;;;18.30;99.90;;;;;;3552928;40;20066;-87
2021/06/23 00:09:26;;;;;;;;;;;18.40;99.90;;;;;;3534218;40;20082;-85
2021/06/23 00:11:55;;;;;;;5.95;2.50;;;18.30;99.90;;;;;;3534562;40;20045;-84
2021/06/23 00:14:23;;;;;;;6.30;2.30;;;18.30;99.90;;;;;;3539726;40;20075;-81
2021/06/23 00:16:53;;;;;;;6.30;2.42;;;18.30;99.90;;;;;;3538014;40;20052;-82
2021/06/23 00:19:23;;;;;;;6.38;2.15;;;18.30;99.90;;;;;;3532901;40;20063;-81
2021/06/23 00:21:50;;;;;;;6.65;2.20;;;18.30;99.90;;;;;;3529566;40;20098;-83
2021/06/23 00:24:18;;;;;;;8.13;2.60;;;18.30;99.90;;;;;;3527258;40;20406;-85
2021/06/23 00:26:46;;;;;;;6.15;2.55;;;18.30;99.90;;;;;;3530941;40;20079;-84
2021/06/23 00:29:16;;;;;;;6.60;2.70;;;18.40;99.90;;;;;;3541601;40;20086;-85
2021/06/23 00:31:43;;;;;;;11.55;2.95;;;18.40;99.90;;;;;;3530902;40;20542;-88
2021/06/23 00:34:21;;;;;;;4.90;2.45;;;18.40;99.90;;;;;;3532979;40;20071;-86
2021/06/23 06:24:19;;;;;;;9.93;3.28;;;19.30;99.90;;;;;;5893828;23;20002;-90
2021/06/23 06:26:51;;;;;;;24.05;5.18;;;19.10;99.90;;;;;;1130956;23;20181;-83
2021/06/23 06:29:19;;;;;;;30.65;3.97;;;19.10;99.90;;;;;;3509476;40;20067;-84
2021/06/23 06:31:48;;;;;;;40.43;5.90;;;19.10;99.90;;;;;;3521580;40;20079;-87
2021/06/23 06:34:42;;;;;;;18.33;3.85;;;19.00;99.90;;;;;;3534878;40;20090;-86
2021/06/23 06:37:10;;;;;;;12.55;3.95;;;19.00;99.90;;;;;;3540350;40;20067;-85
2021/06/23 06:39:39;;;;;;;21.93;4.70;;;19.00;99.90;;;;;;3541912;40;20047;-86
2021/06/23 06:42:08;;;;;;;16.70;4.82;;;19.10;99.90;;;;;;3537168;40;20039;-87
2021/06/23 06:44:36;;;;;;;9.73;4.07;;;19.10;99.90;;;;;;3533007;40;20117;-89
2021/06/23 06:47:04;;;;;;;32.05;5.82;;;19.10;99.90;;;;;;3594951;23;20053;31
2021/06/23 06:52:28;;;;;;;52.97;6.22;;;19.30;99.90;;;;;;3555860;40;20063;-85
2021/06/23 06:54:58;;;;;;;38.80;5.60;;;19.30;99.90;;;;;;3538002;40;20082;-86
2021/06/23 06:57:25;;;;;;;23.90;4.10;;;19.40;99.90;;;;;;3540800;40;20086;-86
2021/06/23 06:59:55;;;;;;;34.78;5.82;;;19.50;99.90;;;;;;3550235;40;20038;-86
2021/06/23 07:02:23;;;;;;;13.68;4.70;;;19.50;99.90;;;;;;3539622;40;20075;-85
2021/06/23 07:04:51;;;;;;;15.00;3.97;;;19.50;99.90;;;;;;3544540;40;20086;-86
2021/06/23 07:07:19;;;;;;;18.17;4.38;;;19.50;99.90;;;;;;3533754;40;20345;-85
2021/06/23 07:09:47;;;;;;;20.15;4.35;;;19.60;99.90;;;;;;3539880;40;20136;-88
2021/06/23 07:12:23;;;;;;;14.60;4.25;;;19.70;99.90;;;;;;3533004;40;20390;-88
2021/06/23 07:14:51;;;;;;;16.85;4.07;;;19.90;99.90;;;;;;3647481;23;20067;-80
2021/06/23 07:25:39;;;;;;;30.55;5.35;;;20.30;99.90;;;;;;3547513;40;19980;-87
2021/06/23 07:28:12;;;;;;;58.58;6.63;;;20.30;99.90;;;;;;3530765;40;20067;-87
2021/06/23 07:30:44;;;;;;;36.15;6.60;;;20.30;99.90;;;;;;3537757;40;20122;-85
2021/06/23 07:33:14;;;;;;;21.00;5.03;;;20.30;99.90;;;;;;3529281;40;20070;-83
2021/06/23 07:38:39;;;;;;;17.05;3.75;;;20.40;99.90;;;;;;3509819;40;19975;-86
2021/06/23 07:41:07;;;;;;;55.47;6.63;;;20.30;99.90;;;;;;3507204;40;20359;-87
2021/06/23 07:43:37;;;;;;;50.30;6.63;;;20.10;99.90;;;;;;3519364;40;20327;-84
2021/06/23 07:46:06;;;;;;;86.88;7.70;;;20.10;99.90;;;;;;3521499;40;20052;-87
2021/06/23 07:48:37;;;;;;;67.45;7.05;;;20.20;99.90;;;;;;3524571;40;20032;-90
2021/06/23 08:08:36;;;;;;;38.85;5.45;;;19.60;99.90;;;;;;3511429;40;20076;-85
2021/06/23 08:11:15;;;;;;;26.90;5.80;;;19.40;99.90;;;;;;3519900;40;20083;-85
2021/06/23 08:13:42;;;;;;;;;;;19.30;99.90;;;;;;3518405;40;20064;-83
2021/06/23 08:16:11;;;;;;;36.20;6.70;;;19.30;99.90;;;;;;3517139;40;20002;-85
2021/06/23 08:18:41;;;;;;;35.40;5.53;;;19.20;99.90;;;;;;3518500;40;20087;-84
2021/06/23 08:21:09;;;;;;;30.70;4.97;;;19.20;99.90;;;;;;3512384;40;20381;-83
2021/06/23 08:23:37;;;;;;;20.02;5.03;;;19.20;99.90;;;;;;3515087;40;20071;-83
2021/06/23 08:26:05;;;;;;;38.00;7.30;;;19.20;99.90;;;;;;3521220;40;20071;-84
2021/06/23 08:28:35;;;;;;;27.38;6.55;;;19.20;99.90;;;;;;3511424;40;20466;-84
2021/06/23 08:31:03;;;;;;;12.47;4.87;;;19.30;99.90;;;;;;3520852;40;20079;-83
2021/06/23 08:33:32;;;;;;;39.03;6.07;;;19.30;99.90;;;;;;3518155;40;20088;-82
2021/06/23 08:36:01;;;;;;;22.83;5.55;;;19.30;99.90;;;;;;3518355;40;20144;-84
2021/06/23 08:38:29;;;;;;;22.48;5.15;;;19.30;99.90;;;;;;3512781;40;20062;-83
2021/06/23 08:41:02;;;;;;;14.35;4.90;;;19.40;99.90;;;;;;3538911;40;20081;-84
2021/06/23 08:43:32;;;;;;;12.52;4.18;;;19.50;99.90;;;;;;3554077;40;20085;-82
2021/06/23 08:46:03;;;;;;;16.08;5.00;;;19.60;99.90;;;;;;3536741;40;20393;-85
2021/06/23 08:48:32;;;;;;;15.45;4.85;;;19.60;99.90;;;;;;3544445;40;20038;-81
2021/06/23 08:51:05;;;;;;;26.67;6.10;;;19.70;99.90;;;;;;3541788;40;20077;-82
2021/06/23 08:53:34;;;;;;;14.18;5.13;;;19.80;99.90;;;;;;3554144;40;20350;-83
2021/06/23 08:56:02;;;;;;;10.20;4.50;;;19.70;99.90;;;;;;3549133;40;20066;-83
2021/06/23 08:58:30;;;;;;;22.27;6.25;;;19.80;99.90;;;;;;3537567;40;20113;-82
2021/06/23 09:01:01;;;;;;;15.57;4.68;;;19.90;99.90;;;;;;3556338;40;20074;-83
2021/06/23 09:03:29;;;;;;;42.05;6.13;;;20.00;99.90;;;;;;3545429;40;20074;-83
2021/06/23 09:05:59;;;;;;;44.00;5.88;;;20.20;99.90;;;;;;3539235;40;20086;-86
2021/06/23 09:09:17;;;;;;;33.60;6.32;;;20.10;99.90;;;;;;3559986;23;20035;-90
2021/06/23 09:11:45;;;;;;;46.30;5.18;;;20.10;99.90;;;;;;3572666;23;20370;-87
2021/06/23 09:14:20;;;;;;;16.30;4.40;;;20.00;99.90;;;;;;3731528;23;20061;-90
2021/06/23 09:17:09;;;;;;;13.43;4.15;;;20.00;99.90;;;;;;3708510;23;20067;31
2021/06/23 09:19:39;;;;;;;17.77;4.65;;;19.80;99.90;;;;;;3530084;40;20042;-87
2021/06/23 09:22:34;;;;;;;14.38;4.30;;;19.70;99.90;;;;;;3531453;40;20035;-89
2021/06/23 09:25:22;;;;;;;10.77;3.80;;;19.60;99.90;;;;;;3531071;40;20040;-87
2021/06/23 09:27:52;;;;;;;25.67;4.97;;;19.50;99.90;;;;;;3518749;40;20043;-88
2021/06/23 09:30:28;;;;;;;13.57;4.95;;;19.50;99.90;;;;;;3516644;40;20409;-89
2021/06/23 09:33:07;;;;;;;26.52;5.13;;;19.50;99.90;;;;;;3533637;40;20406;-89
2021/06/23 09:35:39;;;;;;;12.20;4.13;;;19.40;99.90;;;;;;3525774;40;20039;-90
2021/06/23 09:38:44;;;;;;;14.00;4.30;;;19.40;99.90;;;;;;3698808;23;20098;-88
2021/06/23 09:41:32;;;;;;;13.23;4.38;;;19.50;99.90;;;;;;3625900;23;20058;-90
2021/06/23 09:44:08;;;;;;;14.20;3.97;;;19.60;99.90;;;;;;3729051;23;20067;-86
2021/06/23 09:46:42;;;;;;;12.43;3.85;;;19.70;99.90;;;;;;3547179;40;20037;-88
2021/06/23 09:49:15;;;;;;;16.17;3.88;;;19.80;99.90;;;;;;3546639;40;20038;-89
2021/06/23 09:51:49;;;;;;;15.80;4.25;;;19.90;99.90;;;;;;3558190;40;20022;-88
2021/06/23 09:54:20;;;;;;;14.65;4.20;;;20.00;99.90;;;;;;3539201;40;20314;-87
2021/06/23 09:56:53;;;;;;;14.32;4.28;;;20.20;99.90;;;;;;3563703;40;20038;-86
2021/06/23 09:59:55;;;;;;;12.95;3.60;;;20.20;99.90;;;;;;3603443;23;20043;-89
2021/06/23 10:02:37;;;;;;;13.68;4.22;;;20.10;99.90;;;;;;3727287;23;20026;-87
2021/06/23 10:05:26;;;;;;;17.95;4.40;;;19.90;99.90;;;;;;3764341;23;20049;-89
2021/06/23 10:08:05;;;;;;;13.85;4.93;;;19.70;99.90;;;;;;3624039;23;20097;-86
2021/06/23 10:10:43;;;;;;;10.38;3.95;;;19.70;99.90;;;;;;3536620;40;20397;-88
2021/06/23 10:13:14;;;;;;;12.10;3.90;;;19.80;99.90;;;;;;3636071;23;20055;-88
2021/06/23 10:16:09;;;;;;;12.65;4.10;;;20.00;99.90;;;;;;3684224;23;20046;-90
2021/06/23 10:18:41;;;;;;;20.90;4.80;;;20.10;99.90;;;;;;3545862;40;20034;-87
2021/06/23 10:21:16;;;;;;;15.70;3.80;;;20.10;99.90;;;;;;3542631;40;20043;-89
2021/06/23 10:23:50;;;;;;;22.23;4.25;;;20.20;99.90;;;;;;3518199;40;20059;-90
2021/06/23 10:26:22;;;;;;;19.95;4.10;;;20.30;99.90;;;;;;3541519;40;20039;-91
2021/06/23 10:28:53;;;;;;;26.77;5.15;;;20.40;99.90;;;;;;3528674;40;20050;-88
2021/06/23 10:31:23;;;;;;;17.80;4.03;;;20.40;99.90;;;;;;3540779;40;20314;-86
2021/06/23 10:33:52;;;;;;;35.47;5.28;;;20.50;99.90;;;;;;3536091;40;20068;-89
2021/06/23 10:36:20;;;;;;;24.08;4.38;;;20.60;99.90;;;;;;3529570;40;20075;-84
2021/06/23 10:38:48;;;;;;;23.20;4.45;;;20.80;99.90;;;;;;3516882;40;20138;-83
2021/06/23 10:41:17;;;;;;;8.38;3.95;;;20.80;99.90;;;;;;3509762;40;20102;-84
2021/06/23 10:44:22;;;;;;;29.38;4.80;;;20.70;99.90;;;;;;3515616;40;20383;-84
2021/06/23 10:46:53;;;;;;;22.50;4.82;;;20.70;99.90;;;;;;3529699;40;20095;-83
2021/06/23 10:49:42;;;;;;;14.45;3.70;;;20.70;99.90;;;;;;3529652;40;20059;-83
2021/06/23 10:52:37;;;;;;;24.70;4.80;;;20.80;99.90;;;;;;3531979;40;20078;-84
2021/06/23 10:55:39;;;;;;;20.95;4.47;;;21.00;99.90;;;;;;3515492;40;20067;-84
2021/06/23 10:58:08;;;;;;;14.82;3.70;;;21.10;99.90;;;;;;3529128;40;20079;-84
2021/06/23 11:00:40;;;;;;;26.25;4.68;;;21.20;99.90;;;;;;3539849;40;20079;-83
2021/06/23 11:03:12;;;;;;;12.18;3.70;;;21.40;99.90;;;;;;3542720;40;20151;-84
2021/06/23 11:05:44;;;;;;;20.17;4.18;;;21.40;99.90;;;;;;3539165;40;20063;-87
2021/06/23 11:08:24;;;;;;;20.77;3.70;;;21.40;99.90;;;;;;3546527;40;20038;-86
2021/06/23 11:10:53;;;;;;;20.02;4.82;;;21.40;99.90;;;;;;3544470;40;20058;-90
2021/06/23 11:13:22;;;;;;;;;;;21.40;99.90;;;;;;3549345;40;20035;-87
2021/06/23 11:15:53;;;;;;;20.58;4.45;;;21.50;99.90;;;;;;3534700;40;19944;-84
2021/06/23 11:18:27;;;;;;;26.83;4.65;;;21.60;99.90;;;;;;3539808;40;20075;-82
2021/06/23 11:20:57;;;;;;;32.35;4.75;;;21.50;99.90;;;;;;3529702;40;20087;-86
2021/06/23 11:23:49;;;;;;;23.75;5.43;;;21.40;99.90;;;;;;3533565;40;20086;-84
2021/06/23 11:26:57;;;;;;;20.70;4.72;;;21.50;99.90;;;;;;3527110;40;20067;-85
2021/06/23 11:29:47;;;;;;;25.42;4.82;;;21.60;99.90;;;;;;3532220;40;20075;-85
2021/06/23 11:32:26;;;;;;;14.07;3.78;;;21.80;99.80;;;;;;3528920;40;20087;-83
2021/06/23 11:34:56;;;;;;;54.33;6.55;;;21.90;98.70;;;;;;3522238;40;20050;-82
2021/06/23 11:37:28;;;;;;;57.95;6.18;;;21.80;99.30;;;;;;3523394;40;20083;-82
2021/06/23 11:40:26;;;;;;;59.83;6.78;;;21.90;99.10;;;;;;3517043;40;20087;-83
2021/06/23 11:42:56;;;;;;;30.98;4.85;;;22.00;98.70;;;;;;3508231;41;20309;-83
2021/06/23 11:45:25;;;;;;;28.38;4.88;;;22.10;98.50;;;;;;3506726;40;20145;-82
2021/06/23 11:47:54;;;;;;;36.28;5.18;;;22.20;98.60;;;;;;3518356;40;20134;-82
2021/06/23 11:50:25;;;;;;;31.95;4.85;;;22.40;98.20;;;;;;3513075;40;20075;-81
2021/06/23 11:52:53;;;;;;;10.82;3.95;;;22.50;97.80;;;;;;3505638;40;20103;-82
2021/06/23 11:55:25;;;;;;;11.60;3.45;;;22.50;97.60;;;;;;3513216;40;20446;-86
2021/06/23 11:57:55;;;;;;;13.70;3.67;;;22.80;97.20;;;;;;3521620;40;20431;-83
2021/06/23 12:00:28;;;;;;;12.82;4.53;;;23.10;96.30;;;;;;3514006;40;20079;-82
2021/06/23 12:02:59;;;;;;;11.98;3.40;;;23.30;95.50;;;;;;3505090;40;20072;-82
2021/06/23 12:05:27;;;;;;;7.80;3.67;;;23.50;95.00;;;;;;3512433;40;20087;-83
2021/06/23 12:07:55;;;;;;;10.23;3.30;;;23.70;94.30;;;;;;3504305;40;20071;-82
2021/06/23 12:10:25;;;;;;;16.83;4.28;;;23.90;93.80;;;;;;3513172;40;20092;-82
2021/06/23 12:12:54;;;;;;;19.00;4.03;;;24.10;93.00;;;;;;3514366;40;20067;-83
2021/06/23 12:15:24;;;;;;;30.25;4.10;;;24.10;92.20;;;;;;3505472;40;20155;-81
2021/06/23 12:17:58;;;;;;;256.77;18.23;;;24.20;92.30;;;;;;3513023;40;20079;-81
2021/06/23 12:20:28;;;;;;;83.72;8.57;;;24.20;91.60;;;;;;3532880;40;20054;-83
2021/06/23 12:22:57;;;;;;;64.95;7.03;;;24.10;91.70;;;;;;3532721;40;20086;-83
2021/06/23 12:25:28;;;;;;;51.90;5.68;;;23.90;92.00;;;;;;3532159;40;20074;-84
2021/06/23 12:27:56;;;;;;;61.97;6.05;;;23.90;92.20;;;;;;3532344;40;20386;-82
2021/06/23 12:30:27;;;;;;;24.27;5.05;;;24.00;92.00;;;;;;3516320;40;20090;-83
2021/06/23 12:32:55;;;;;;;69.47;8.40;;;24.00;91.80;;;;;;3523953;40;20402;-82
2021/06/23 12:35:25;;;;;;;327.05;19.00;;;23.90;91.50;;;;;;3541265;40;20090;-82
2021/06/23 12:37:56;;;;;;;24.48;6.10;;;23.70;91.80;;;;;;3533141;40;20067;-84
2021/06/23 12:40:24;;;;;;;126.85;11.50;;;23.50;91.50;;;;;;3530749;40;20402;-82
2021/06/23 12:42:53;;;;;;;71.35;7.15;;;23.60;91.70;;;;;;3533319;40;20165;-81
2021/06/23 12:45:21;;;;;;;29.35;4.72;;;23.70;91.60;;;;;;3550966;40;20066;-82
2021/06/23 12:47:50;;;;;;;13.80;4.28;;;24.00;91.50;;;;;;3550367;40;20297;-82
2021/06/23 12:50:21;;;;;;;14.88;4.03;;;24.30;90.70;;;;;;3538133;40;20063;-83
2021/06/23 12:52:51;;;;;;;19.90;4.05;;;24.60;90.40;;;;;;3533773;40;20071;-82
2021/06/23 12:55:20;;;;;;;13.93;4.38;;;25.20;88.80;;;;;;3538696;40;20090;-81
2021/06/23 12:57:48;;;;;;;9.38;3.30;;;25.80;86.60;;;;;;3527085;40;20295;-82
2021/06/23 13:00:17;;;;;;;13.55;4.00;;;26.50;83.70;;;;;;3525906;40;20098;-82
2021/06/23 13:02:45;;;;;;;26.77;4.50;;;26.80;81.50;;;;;;3548783;40;20066;-81
2021/06/23 13:05:16;;;;;;;83.18;7.53;;;27.30;79.30;;;;;;3559370;40;20069;-81
2021/06/23 13:07:45;;;;;;;72.18;9.00;;;27.50;76.00;;;;;;3548257;40;20067;-82
2021/06/23 13:10:16;;;;;;;22.67;4.28;;;27.90;74.90;;;;;;3537000;40;20078;-81
2021/06/23 13:12:45;;;;;;;21.65;4.18;;;28.70;71.50;;;;;;3541935;40;20087;-83
2021/06/23 13:15:19;;;;;;;17.15;4.68;;;29.30;69.00;;;;;;3540033;40;20074;-85
2021/06/23 13:17:54;;;;;;;9.43;3.42;;;29.30;67.50;;;;;;3531364;40;20305;-83
2021/06/23 13:20:25;;;;;;;18.10;3.80;;;29.50;66.60;;;;;;3532337;40;20418;-86
2021/06/23 13:22:55;;;;;;;128.13;11.35;;;30.40;63.80;;;;;;3534157;40;20062;-82
2021/06/23 13:25:25;;;;;;;104.78;10.98;;;30.80;61.50;;;;;;3547695;40;20419;-82
2021/06/23 13:27:54;;;;;;;89.78;7.05;;;30.80;61.60;;;;;;3542958;40;20070;-84
2021/06/23 13:30:24;;;;;;;43.78;4.97;;;30.40;61.20;;;;;;3543881;40;20066;-84
2021/06/23 13:32:53;;;;;;;29.95;5.32;;;30.20;61.40;;;;;;3550602;40;20159;-83
2021/06/23 13:35:22;;;;;;;20.77;4.60;;;30.00;61.50;;;;;;3544058;40;20062;-81
2021/06/23 13:37:53;;;;;;;31.40;4.38;;;29.90;61.80;;;;;;3534518;40;20078;-83
2021/06/23 13:40:32;;;;;;;23.42;5.13;;;29.50;62.10;;;;;;3531341;40;20034;-84
2021/06/23 13:43:01;;;;;;;13.13;3.83;;;29.20;63.10;;;;;;3553405;40;20070;-83
2021/06/23 13:45:29;;;;;;;;;;;28.80;63.90;;;;;;3528521;40;20352;-83
2021/06/23 13:47:58;;;;;;;14.35;4.32;;;28.60;64.40;;;;;;3540057;40;19978;-83
2021/06/23 13:50:26;;;;;;;10.38;4.15;;;28.10;65.40;;;;;;3547164;40;20287;-82
2021/06/23 13:52:55;;;;;;;14.30;3.80;;;27.50;67.10;;;;;;3535892;40;20074;-82
2021/06/23 13:55:25;;;;;;;8.82;4.40;;;27.30;68.30;;;;;;3540067;40;20062;-81
2021/06/23 13:57:57;;;;;;;9.75;3.80;;;27.10;68.60;;;;;;3543577;40;20094;-84
2021/06/23 14:00:29;;;;;;;12.38;3.72;;;26.90;69.10;;;;;;3549796;40;20071;-82
2021/06/23 14:02:58;;;;;;;9.55;4.00;;;26.80;69.60;;;;;;3542908;40;20107;-85
2021/06/23 14:05:29;;;;;;;11.43;3.85;;;26.80;70.00;;;;;;3579120;23;20070;-92
2021/06/23 14:20:21;;;;;;;13.02;3.65;;;28.10;66.90;;;;;;1358932;23;20192;-88
2021/06/23 14:25:38;;;;;;;8.77;4.38;;;29.40;64.50;;;;;;3058499;23;20033;-83
2021/06/23 14:39:25;;;;;;;7.85;3.58;;;30.10;59.10;;;;;;3573095;40;20034;-83
2021/06/23 14:44:43;;;;;;;8.85;3.50;;;29.10;61.60;;;;;;3565919;40;20070;-86
2021/06/23 14:47:10;;;;;;;8.27;4.15;;;29.10;61.80;;;;;;3550448;40;20062;-85
2021/06/23 14:49:41;;;;;;;8.43;4.05;;;29.20;60.90;;;;;;3556199;40;20074;-84
2021/06/23 15:07:48;;;;;;;9.70;4.10;;;27.60;64.90;;;;;;3563262;40;20037;-83
2021/06/23 15:19:27;;;;;;;8.18;3.35;;;27.20;66.00;;;;;;2763695;23;20022;-81
2021/06/23 15:33:20;;;;;;;9.93;3.80;;;26.80;68.10;;;;;;3572918;40;20029;-83
2021/06/23 15:44:00;;;;;;;16.05;4.30;;;27.60;66.50;;;;;;3572658;40;20023;-82
2021/06/23 15:56:18;;;;;;;9.32;3.67;;;27.40;66.00;;;;;;3562925;40;20027;-83
2021/06/23 16:04:56;;;;;;;9.68;3.50;;;27.10;66.60;;;;;;1399762;23;20161;-90
2021/06/23 16:10:32;;;;;;;12.40;3.45;;;27.00;67.10;;;;;;3560663;40;20038;-82
2021/06/23 16:15:52;;;;;;;6.40;3.08;;;26.80;67.30;;;;;;3562857;40;20034;-84
2021/06/23 16:21:02;;;;;;;9.98;3.47;;;26.70;67.70;;;;;;3562671;40;20031;-82
2021/06/23 16:27:09;;;;;;;8.98;3.65;;;26.40;68.20;;;;;;3572556;40;19940;-81
2021/06/23 16:50:24;;;;;;;10.73;3.20;;;24.40;74.50;;;;;;1131735;23;20180;-87
2021/06/23 16:55:54;;;;;;;9.95;3.72;;;24.30;75.30;;;;;;3053634;23;20042;-83
2021/06/23 17:04:45;;;;;;;8.25;3.75;;;23.90;76.80;;;;;;3572333;40;19940;-86
2021/06/23 17:10:14;;;;;;;12.88;4.30;;;23.80;77.70;;;;;;3552754;40;20023;-85
2021/06/23 17:37:31;;;;;;;6.43;3.08;;;23.20;80.80;;;;;;3572092;40;20030;-83
2021/06/23 17:40:25;;;;;;;7.47;3.58;;;23.10;81.10;;;;;;3644769;23;20930;-93
2021/06/23 17:43:27;;;;;;;7.75;3.72;;;23.00;81.60;;;;;;1359882;23;20268;-89
2021/06/23 17:46:17;;;;;;;8.38;3.67;;;22.80;82.30;;;;;;1107693;23;20233;-92
2021/06/23 18:01:00;;;;;;;8.02;4.15;;;22.90;83.70;;;;;;1464226;23;21750;-92
2021/06/23 18:12:02;;;;;;;8.57;3.83;;;22.80;84.50;;;;;;3573433;40;20030;-82
2021/06/23 18:14:33;;;;;;;11.95;4.00;;;22.80;85.00;;;;;;3670804;23;20086;-82
2021/06/23 18:25:42;;;;;;;8.40;3.70;;;22.50;87.10;;;;;;1280724;23;20165;-91
2021/06/23 18:37:04;;;;;;;8.13;4.13;;;22.10;89.80;;;;;;1276597;23;20823;-92
2021/06/23 19:03:31;;;;;;;7.65;4.00;;;21.50;92.70;;;;;;1207804;23;21351;-89
2021/06/23 19:09:20;;;;;;;13.60;4.80;;;21.40;93.50;;;;;;1204551;23;21377;-91
2021/06/23 19:26:11;;;;;;;7.35;3.80;;;21.10;95.10;;;;;;3553244;40;20051;-81
2021/06/23 19:32:07;;;;;;;8.40;4.45;;;21.00;95.90;;;;;;3563291;40;20030;-82
2021/06/23 19:40:52;;;;;;;7.55;4.15;;;20.90;97.10;;;;;;1206559;23;20184;-88
2021/06/23 19:46:19;;;;;;;8.32;4.00;;;20.80;98.00;;;;;;3572641;40;20042;-82
2021/06/23 20:04:03;;;;;;;8.65;4.13;;;20.70;99.90;;;;;;1709041;23;20218;-92
2021/06/23 20:38:25;;;;;;;8.93;4.80;;;20.20;99.90;;;;;;3562840;40;20026;-79
2021/06/23 20:40:56;;;;;;;9.25;4.18;;;20.30;99.90;;;;;;3616326;23;20082;-88
2021/06/23 20:53:00;;;;;;;11.25;4.18;;;20.20;99.90;;;;;;1208050;23;21356;-91
2021/06/23 21:04:16;;;;;;;6.82;3.40;;;20.20;99.90;;;;;;3347453;23;20070;-83
2021/06/23 21:06:51;;;;;;;8.00;4.38;;;20.10;99.90;;;;;;3641509;23;20030;-78
2021/06/23 21:09:27;;;;;;;10.07;3.67;;;20.10;99.90;;;;;;3639030;23;20037;-79
2021/06/23 21:23:44;;;;;;;7.65;3.60;;;20.00;99.90;;;;;;1133315;23;20165;-91
2021/06/23 21:32:00;;;;;;;6.15;3.42;;;20.00;99.90;;;;;;3353818;23;20037;-82
2021/06/23 21:43:09;;;;;;;7.90;3.53;;;19.80;99.90;;;;;;3554359;40;20023;-79
